sensor_id;sensor_type;location;lat;lon;timestamp;pressure;altitude;pressure_sealevel;temperature;humidity
45864;BME280;31579;52.354;16.974;2023-04-26T00:00:42;-123.0;;;-146.1;100.0
45864;BME280;31579;52.354;16.974;2023-04-26T00:01:44;-124.8;;;-146.1;100.0
45864;BME280;31579;52.354;16.974;2023-04-26T00:02:48;-126.3;;;-146.1;100.0
45864;BME280;31579;52.354;16.974;2023-04-26T00:03:52;-127.5;;;-146.1;100.0
45864;BME280;31579;52.354;16.974;2023-04-26T00:04:56;-128.1;;;-146.1;100.0
45864;BME280;31579;52.354;16.974;2023-04-26T00:06:00;-129.6;;;-146.1;100.0
45864;BME280;31579;52.354;16.974;2023-04-26T00:07:05;-130.1;;;-146.1;100.0
45864;BME280;31579;52.354;16.974;2023-04-26T00:08:09;-131.6;;;-146.1;100.0
45864;BME280;31579;52.354;16.974;2023-04-26T00:09:14;-132.4;;;-146.1;100.0
45864;BME280;31579;52.354;16.974;2023-04-26T00:10:17;-133.3;;;-146.1;100.0
45864;BME280;31579;52.354;16.974;2023-04-26T00:11:21;-134.7;;;-146.1;100.0
45864;BME280;31579;52.354;16.974;2023-04-26T00:12:25;-135.1;;;-146.1;100.0
45864;BME280;31579;52.354;16.974;2023-04-26T00:13:29;-135.9;;;-146.1;100.0
45864;BME280;31579;52.354;16.974;2023-04-26T00:14:33;-136.6;;;-146.1;100.0
45864;BME280;31579;52.354;16.974;2023-04-26T00:15:37;-137.6;;;-146.1;100.0
45864;BME280;31579;52.354;16.974;2023-04-26T00:16:41;-138.3;;;-146.1;100.0
45864;BME280;31579;52.354;16.974;2023-04-26T00:17:45;-139.2;;;-146.1;100.0
45864;BME280;31579;52.354;16.974;2023-04-26T00:18:49;-139.6;;;-146.1;100.0
45864;BME280;31579;52.354;16.974;2023-04-26T00:19:53;-139.9;;;-146.1;100.0
45864;BME280;31579;52.354;16.974;2023-04-26T00:20:57;-140.6;;;-146.1;100.0
45864;BME280;31579;52.354;16.974;2023-04-26T00:22:01;-141.5;;;-146.1;100.0
45864;BME280;31579;52.354;16.974;2023-04-26T00:23:05;-142.3;;;-146.1;100.0
45864;BME280;31579;52.354;16.974;2023-04-26T00:24:09;-143.1;;;-146.1;100.0
45864;BME280;31579;52.354;16.974;2023-04-26T00:25:13;-143.1;;;-146.1;100.0
45864;BME280;31579;52.354;16.974;2023-04-26T00:26:17;-144.1;;;-146.1;100.0
45864;BME280;31579;52.354;16.974;2023-04-26T00:27:21;-145.2;;;-146.1;100.0
45864;BME280;31579;52.354;16.974;2023-04-26T00:28:27;-145.5;;;-146.1;100.0
45864;BME280;31579;52.354;16.974;2023-04-26T00:29:30;-146.0;;;-146.1;100.0
45864;BME280;31579;52.354;16.974;2023-04-26T00:30:35;-146.9;;;-146.1;100.0
45864;BME280;31579;52.354;16.974;2023-04-26T00:31:38;-147.8;;;-146.1;100.0
45864;BME280;31579;52.354;16.974;2023-04-26T00:32:42;-148.1;;;-146.1;100.0
45864;BME280;31579;52.354;16.974;2023-04-26T00:33:46;-148.2;;;-146.1;100.0
45864;BME280;31579;52.354;16.974;2023-04-26T00:34:50;-148.4;;;-146.1;100.0
45864;BME280;31579;52.354;16.974;2023-04-26T00:35:54;-148.6;;;-146.1;100.0
45864;BME280;31579;52.354;16.974;2023-04-26T00:36:58;-149.1;;;-146.1;100.0
45864;BME280;31579;52.354;16.974;2023-04-26T00:38:00;-108.6;;;-146.1;100.0
45864;BME280;31579;52.354;16.974;2023-04-26T00:39:03;-107.5;;;-146.1;100.0
45864;BME280;31579;52.354;16.974;2023-04-26T00:40:08;-126.7;;;-146.1;100.0
45864;BME280;31579;52.354;16.974;2023-04-26T00:41:12;-131.1;;;-146.1;100.0
45864;BME280;31579;52.354;16.974;2023-04-26T00:42:14;-110.5;;;-146.1;100.0
45864;BME280;31579;52.354;16.974;2023-04-26T00:43:16;-65.6;;;-146.1;100.0
45864;BME280;31579;52.354;16.974;2023-04-26T00:44:27;-150.9;;;-146.1;100.0
45864;BME280;31579;52.354;16.974;2023-04-26T00:45:31;-143.8;;;-146.1;100.0
45864;BME280;31579;52.354;16.974;2023-04-26T00:46:35;-144.1;;;-146.1;100.0
45864;BME280;31579;52.354;16.974;2023-04-26T00:47:39;-145.2;;;-146.1;100.0
45864;BME280;31579;52.354;16.974;2023-04-26T00:48:43;-145.9;;;-146.1;100.0
45864;BME280;31579;52.354;16.974;2023-04-26T00:49:47;-146.3;;;-146.1;100.0
45864;BME280;31579;52.354;16.974;2023-04-26T00:50:52;-146.5;;;-146.1;100.0
45864;BME280;31579;52.354;16.974;2023-04-26T00:51:56;-147.4;;;-146.1;100.0
45864;BME280;31579;52.354;16.974;2023-04-26T00:53:00;-148.3;;;-146.1;100.0
45864;BME280;31579;52.354;16.974;2023-04-26T00:54:04;-129.7;;;-146.1;100.0
45864;BME280;31579;52.354;16.974;2023-04-26T00:55:08;-143.0;;;-146.1;100.0
45864;BME280;31579;52.354;16.974;2023-04-26T00:56:12;-145.2;;;-146.1;100.0
45864;BME280;31579;52.354;16.974;2023-04-26T00:57:17;-147.0;;;-146.1;100.0
45864;BME280;31579;52.354;16.974;2023-04-26T00:58:20;-148.5;;;-146.1;100.0
45864;BME280;31579;52.354;16.974;2023-04-26T00:59:23;-112.3;;;-146.1;100.0
45864;BME280;31579;52.354;16.974;2023-04-26T01:00:27;-136.1;;;-146.1;100.0
45864;BME280;31579;52.354;16.974;2023-04-26T01:01:32;-140.2;;;-146.1;100.0
45864;BME280;31579;52.354;16.974;2023-04-26T01:02:35;-143.0;;;-146.1;100.0
45864;BME280;31579;52.354;16.974;2023-04-26T01:03:39;-145.1;;;-146.1;100.0
45864;BME280;31579;52.354;16.974;2023-04-26T01:04:43;-147.1;;;-146.1;100.0
45864;BME280;31579;52.354;16.974;2023-04-26T01:05:47;-148.3;;;-146.1;100.0
45864;BME280;31579;52.354;16.974;2023-04-26T01:06:51;-149.8;;;-146.1;100.0
45864;BME280;31579;52.354;16.974;2023-04-26T01:07:55;-150.5;;;-146.1;100.0
45864;BME280;31579;52.354;16.974;2023-04-26T01:10:04;-151.4;;;-146.1;100.0
45864;BME280;31579;52.354;16.974;2023-04-26T01:11:07;-151.7;;;-146.1;100.0
45864;BME280;31579;52.354;16.974;2023-04-26T01:12:11;-152.0;;;-146.1;100.0
45864;BME280;31579;52.354;16.974;2023-04-26T01:13:16;-152.2;;;-146.1;100.0
45864;BME280;31579;52.354;16.974;2023-04-26T01:14:20;-152.4;;;-146.1;100.0
45864;BME280;31579;52.354;16.974;2023-04-26T01:15:24;-152.5;;;-146.1;100.0
45864;BME280;31579;52.354;16.974;2023-04-26T01:16:29;-152.5;;;-146.1;100.0
45864;BME280;31579;52.354;16.974;2023-04-26T01:17:32;-152.5;;;-146.1;100.0
45864;BME280;31579;52.354;16.974;2023-04-26T01:18:36;-152.6;;;-146.1;100.0
45864;BME280;31579;52.354;16.974;2023-04-26T01:20:44;-152.6;;;-146.1;100.0
45864;BME280;31579;52.354;16.974;2023-04-26T01:21:48;-152.6;;;-146.1;100.0
45864;BME280;31579;52.354;16.974;2023-04-26T01:22:53;-152.6;;;-146.1;100.0
45864;BME280;31579;52.354;16.974;2023-04-26T01:23:57;-152.6;;;-146.1;100.0
45864;BME280;31579;52.354;16.974;2023-04-26T01:25:03;-152.6;;;-146.1;100.0
45864;BME280;31579;52.354;16.974;2023-04-26T01:26:05;-152.6;;;-146.1;100.0
45864;BME280;31579;52.354;16.974;2023-04-26T01:27:11;-152.7;;;-146.1;100.0
45864;BME280;31579;52.354;16.974;2023-04-26T01:28:14;-152.7;;;-146.1;100.0
45864;BME280;31579;52.354;16.974;2023-04-26T01:29:19;-152.7;;;-146.1;100.0
45864;BME280;31579;52.354;16.974;2023-04-26T01:30:23;-152.6;;;-146.1;100.0
45864;BME280;31579;52.354;16.974;2023-04-26T01:31:31;-152.6;;;-146.1;100.0
45864;BME280;31579;52.354;16.974;2023-04-26T01:32:35;-152.6;;;-146.1;100.0
45864;BME280;31579;52.354;16.974;2023-04-26T01:33:39;-152.7;;;-146.1;100.0
45864;BME280;31579;52.354;16.974;2023-04-26T01:34:43;-152.7;;;-146.1;100.0
45864;BME280;31579;52.354;16.974;2023-04-26T01:35:47;-152.7;;;-146.1;100.0
45864;BME280;31579;52.354;16.974;2023-04-26T01:36:51;-152.7;;;-146.1;100.0
45864;BME280;31579;52.354;16.974;2023-04-26T01:37:55;-152.7;;;-146.1;100.0
45864;BME280;31579;52.354;16.974;2023-04-26T01:38:59;-152.7;;;-146.1;100.0
45864;BME280;31579;52.354;16.974;2023-04-26T01:40:01;-152.3;;;-146.1;100.0
45864;BME280;31579;52.354;16.974;2023-04-26T01:41:06;-152.6;;;-146.1;100.0
45864;BME280;31579;52.354;16.974;2023-04-26T01:42:10;-152.6;;;-146.1;100.0
45864;BME280;31579;52.354;16.974;2023-04-26T01:43:14;-152.6;;;-146.1;100.0
45864;BME280;31579;52.354;16.974;2023-04-26T01:44:19;-152.6;;;-146.1;100.0
45864;BME280;31579;52.354;16.974;2023-04-26T01:45:23;-152.7;;;-146.1;100.0
45864;BME280;31579;52.354;16.974;2023-04-26T01:46:28;-152.7;;;-146.1;100.0
45864;BME280;31579;52.354;16.974;2023-04-26T01:47:32;-152.7;;;-146.1;100.0
45864;BME280;31579;52.354;16.974;2023-04-26T01:48:36;-152.7;;;-146.1;100.0
45864;BME280;31579;52.354;16.974;2023-04-26T01:49:40;-152.7;;;-146.1;100.0
45864;BME280;31579;52.354;16.974;2023-04-26T01:50:44;-152.7;;;-146.1;100.0
45864;BME280;31579;52.354;16.974;2023-04-26T01:51:48;-152.7;;;-146.1;100.0
45864;BME280;31579;52.354;16.974;2023-04-26T01:52:52;-152.7;;;-146.1;100.0
45864;BME280;31579;52.354;16.974;2023-04-26T01:53:56;-152.7;;;-146.1;100.0
45864;BME280;31579;52.354;16.974;2023-04-26T01:55:00;-152.7;;;-146.1;100.0
45864;BME280;31579;52.354;16.974;2023-04-26T01:56:04;-152.7;;;-146.1;100.0
45864;BME280;31579;52.354;16.974;2023-04-26T01:57:08;-152.7;;;-146.1;100.0
45864;BME280;31579;52.354;16.974;2023-04-26T01:58:12;-152.7;;;-146.1;100.0
45864;BME280;31579;52.354;16.974;2023-04-26T01:59:16;-152.7;;;-146.1;100.0
45864;BME280;31579;52.354;16.974;2023-04-26T02:00:20;-152.7;;;-146.1;100.0
45864;BME280;31579;52.354;16.974;2023-04-26T02:01:24;-152.7;;;-146.1;100.0
45864;BME280;31579;52.354;16.974;2023-04-26T02:02:27;-152.7;;;-146.1;100.0
45864;BME280;31579;52.354;16.974;2023-04-26T02:03:32;-152.7;;;-146.1;100.0
45864;BME280;31579;52.354;16.974;2023-04-26T02:04:37;-152.7;;;-146.1;100.0
45864;BME280;31579;52.354;16.974;2023-04-26T02:05:41;-152.7;;;-146.1;100.0
45864;BME280;31579;52.354;16.974;2023-04-26T02:06:45;-152.7;;;-146.1;100.0
45864;BME280;31579;52.354;16.974;2023-04-26T02:07:49;-152.7;;;-146.1;100.0
45864;BME280;31579;52.354;16.974;2023-04-26T02:08:53;-152.7;;;-146.1;100.0
45864;BME280;31579;52.354;16.974;2023-04-26T02:09:57;-152.7;;;-146.1;100.0
45864;BME280;31579;52.354;16.974;2023-04-26T02:11:01;-152.7;;;-146.1;100.0
45864;BME280;31579;52.354;16.974;2023-04-26T02:12:06;-152.7;;;-146.1;100.0
45864;BME280;31579;52.354;16.974;2023-04-26T02:13:10;-152.7;;;-146.1;100.0
45864;BME280;31579;52.354;16.974;2023-04-26T02:14:14;-152.7;;;-146.1;100.0
45864;BME280;31579;52.354;16.974;2023-04-26T02:15:19;-152.7;;;-146.1;100.0
45864;BME280;31579;52.354;16.974;2023-04-26T02:16:23;-152.7;;;-146.1;100.0
45864;BME280;31579;52.354;16.974;2023-04-26T02:17:30;-152.7;;;-146.1;100.0
45864;BME280;31579;52.354;16.974;2023-04-26T02:18:34;-151.0;;;-146.1;100.0
45864;BME280;31579;52.354;16.974;2023-04-26T02:19:38;-152.1;;;-146.1;100.0
45864;BME280;31579;52.354;16.974;2023-04-26T02:20:42;-152.5;;;-146.1;100.0
45864;BME280;31579;52.354;16.974;2023-04-26T02:22:49;-152.6;;;-146.1;100.0
45864;BME280;31579;52.354;16.974;2023-04-26T02:23:53;-152.6;;;-146.1;100.0
45864;BME280;31579;52.354;16.974;2023-04-26T02:24:57;-152.7;;;-146.1;100.0
45864;BME280;31579;52.354;16.974;2023-04-26T02:26:02;-152.7;;;-146.1;100.0
45864;BME280;31579;52.354;16.974;2023-04-26T02:27:06;-152.7;;;-146.1;100.0
45864;BME280;31579;52.354;16.974;2023-04-26T02:28:10;-152.7;;;-146.1;100.0
45864;BME280;31579;52.354;16.974;2023-04-26T02:29:14;-152.7;;;-146.1;100.0
45864;BME280;31579;52.354;16.974;2023-04-26T02:30:18;-152.7;;;-146.1;100.0
45864;BME280;31579;52.354;16.974;2023-04-26T02:31:22;-152.7;;;-146.1;100.0
45864;BME280;31579;52.354;16.974;2023-04-26T02:32:26;-152.7;;;-146.1;100.0
45864;BME280;31579;52.354;16.974;2023-04-26T02:33:30;-152.7;;;-146.1;100.0
45864;BME280;31579;52.354;16.974;2023-04-26T02:34:35;-152.7;;;-146.1;100.0
45864;BME280;31579;52.354;16.974;2023-04-26T02:35:39;-152.7;;;-146.1;100.0
45864;BME280;31579;52.354;16.974;2023-04-26T02:36:44;-152.7;;;-146.1;100.0
45864;BME280;31579;52.354;16.974;2023-04-26T02:37:48;-152.7;;;-146.1;100.0
45864;BME280;31579;52.354;16.974;2023-04-26T02:38:52;-152.7;;;-146.1;100.0
45864;BME280;31579;52.354;16.974;2023-04-26T02:39:56;-152.7;;;-146.1;100.0
45864;BME280;31579;52.354;16.974;2023-04-26T02:41:01;-152.7;;;-146.1;100.0
45864;BME280;31579;52.354;16.974;2023-04-26T02:42:07;-152.7;;;-146.1;100.0
45864;BME280;31579;52.354;16.974;2023-04-26T02:43:08;-152.7;;;-146.1;100.0
45864;BME280;31579;52.354;16.974;2023-04-26T02:44:12;-152.7;;;-146.1;100.0
45864;BME280;31579;52.354;16.974;2023-04-26T02:45:16;-152.7;;;-146.1;100.0
45864;BME280;31579;52.354;16.974;2023-04-26T02:46:20;-152.7;;;-146.1;100.0
45864;BME280;31579;52.354;16.974;2023-04-26T02:47:25;-152.7;;;-146.1;100.0
45864;BME280;31579;52.354;16.974;2023-04-26T02:48:27;-152.2;;;-146.1;100.0
45864;BME280;31579;52.354;16.974;2023-04-26T02:49:29;-152.7;;;-146.1;100.0
45864;BME280;31579;52.354;16.974;2023-04-26T02:50:33;-152.7;;;-146.1;100.0
45864;BME280;31579;52.354;16.974;2023-04-26T02:51:37;-152.7;;;-146.1;100.0
45864;BME280;31579;52.354;16.974;2023-04-26T02:52:41;-152.7;;;-146.1;100.0
45864;BME280;31579;52.354;16.974;2023-04-26T02:53:45;-152.7;;;-146.1;100.0
45864;BME280;31579;52.354;16.974;2023-04-26T02:54:49;-152.7;;;-146.1;100.0
45864;BME280;31579;52.354;16.974;2023-04-26T02:55:53;-152.7;;;-146.1;100.0
45864;BME280;31579;52.354;16.974;2023-04-26T02:56:57;-152.7;;;-146.1;100.0
45864;BME280;31579;52.354;16.974;2023-04-26T02:58:01;-152.6;;;-146.1;100.0
45864;BME280;31579;52.354;16.974;2023-04-26T02:59:04;-152.3;;;-146.1;100.0
45864;BME280;31579;52.354;16.974;2023-04-26T03:00:08;-152.7;;;-146.1;100.0
45864;BME280;31579;52.354;16.974;2023-04-26T03:01:12;-152.7;;;-146.1;100.0
45864;BME280;31579;52.354;16.974;2023-04-26T03:02:16;-152.7;;;-146.1;100.0
45864;BME280;31579;52.354;16.974;2023-04-26T03:03:21;-152.7;;;-146.1;100.0
45864;BME280;31579;52.354;16.974;2023-04-26T03:04:25;-152.6;;;-146.1;100.0
45864;BME280;31579;52.354;16.974;2023-04-26T03:05:27;-148.7;;;-146.1;100.0
45864;BME280;31579;52.354;16.974;2023-04-26T03:06:29;-152.6;;;-146.1;100.0
45864;BME280;31579;52.354;16.974;2023-04-26T03:07:33;-152.7;;;-146.1;100.0
45864;BME280;31579;52.354;16.974;2023-04-26T03:08:37;-152.7;;;-146.1;100.0
45864;BME280;31579;52.354;16.974;2023-04-26T03:09:41;-152.7;;;-146.1;100.0
45864;BME280;31579;52.354;16.974;2023-04-26T03:10:45;-152.7;;;-146.1;100.0
45864;BME280;31579;52.354;16.974;2023-04-26T03:11:49;-152.6;;;-146.1;100.0
45864;BME280;31579;52.354;16.974;2023-04-26T03:12:54;-152.6;;;-146.1;100.0
45864;BME280;31579;52.354;16.974;2023-04-26T03:13:58;-152.6;;;-146.1;100.0
45864;BME280;31579;52.354;16.974;2023-04-26T03:15:01;-146.1;;;-146.1;100.0
45864;BME280;31579;52.354;16.974;2023-04-26T03:16:04;-152.7;;;-146.1;100.0
45864;BME280;31579;52.354;16.974;2023-04-26T03:17:08;-152.7;;;-146.1;100.0
45864;BME280;31579;52.354;16.974;2023-04-26T03:18:12;-152.7;;;-146.1;100.0
45864;BME280;31579;52.354;16.974;2023-04-26T03:19:16;-152.7;;;-146.1;100.0
45864;BME280;31579;52.354;16.974;2023-04-26T03:20:20;-152.6;;;-146.1;100.0
45864;BME280;31579;52.354;16.974;2023-04-26T03:21:24;-152.6;;;-146.1;100.0
45864;BME280;31579;52.354;16.974;2023-04-26T03:22:27;-151.6;;;-146.1;100.0
45864;BME280;31579;52.354;16.974;2023-04-26T03:23:32;-152.7;;;-146.1;100.0
45864;BME280;31579;52.354;16.974;2023-04-26T03:24:37;-152.6;;;-146.1;100.0
45864;BME280;31579;52.354;16.974;2023-04-26T03:25:41;-152.6;;;-146.1;100.0
45864;BME280;31579;52.354;16.974;2023-04-26T03:26:45;-152.6;;;-146.1;100.0
45864;BME280;31579;52.354;16.974;2023-04-26T03:27:49;-152.6;;;-146.1;100.0
45864;BME280;31579;52.354;16.974;2023-04-26T03:28:53;-152.6;;;-146.1;100.0
45864;BME280;31579;52.354;16.974;2023-04-26T03:29:57;-152.6;;;-146.1;100.0
45864;BME280;31579;52.354;16.974;2023-04-26T03:31:01;-152.6;;;-146.1;100.0
45864;BME280;31579;52.354;16.974;2023-04-26T03:32:06;-152.6;;;-146.1;100.0
45864;BME280;31579;52.354;16.974;2023-04-26T03:33:10;-152.6;;;-146.1;100.0
45864;BME280;31579;52.354;16.974;2023-04-26T03:34:14;-152.6;;;-146.1;100.0
45864;BME280;31579;52.354;16.974;2023-04-26T03:35:18;-152.6;;;-146.1;100.0
45864;BME280;31579;52.354;16.974;2023-04-26T03:36:22;-152.6;;;-146.1;100.0
45864;BME280;31579;52.354;16.974;2023-04-26T03:37:26;-152.6;;;-146.1;100.0
45864;BME280;31579;52.354;16.974;2023-04-26T03:38:30;-152.6;;;-146.1;100.0
45864;BME280;31579;52.354;16.974;2023-04-26T03:39:34;-152.6;;;-146.1;100.0
45864;BME280;31579;52.354;16.974;2023-04-26T03:40:38;-152.6;;;-146.1;100.0
45864;BME280;31579;52.354;16.974;2023-04-26T03:41:42;-152.6;;;-146.1;100.0
45864;BME280;31579;52.354;16.974;2023-04-26T03:42:46;-152.6;;;-146.1;100.0
45864;BME280;31579;52.354;16.974;2023-04-26T03:43:50;-152.6;;;-146.1;100.0
45864;BME280;31579;52.354;16.974;2023-04-26T03:44:54;-152.6;;;-146.1;100.0
45864;BME280;31579;52.354;16.974;2023-04-26T03:45:58;-152.5;;;-146.1;100.0
45864;BME280;31579;52.354;16.974;2023-04-26T03:47:01;-137.5;;;-146.1;100.0
45864;BME280;31579;52.354;16.974;2023-04-26T03:48:06;-152.6;;;-146.1;100.0
45864;BME280;31579;52.354;16.974;2023-04-26T03:49:10;-152.6;;;-146.1;100.0
45864;BME280;31579;52.354;16.974;2023-04-26T03:50:14;-152.6;;;-146.1;100.0
45864;BME280;31579;52.354;16.974;2023-04-26T03:51:18;-152.5;;;-146.1;100.0
45864;BME280;31579;52.354;16.974;2023-04-26T03:52:23;-152.5;;;-146.1;100.0
45864;BME280;31579;52.354;16.974;2023-04-26T03:53:30;-152.7;;;-146.1;100.0
45864;BME280;31579;52.354;16.974;2023-04-26T03:54:35;-150.8;;;-146.1;100.0
45864;BME280;31579;52.354;16.974;2023-04-26T03:55:39;-151.7;;;-146.1;100.0
45864;BME280;31579;52.354;16.974;2023-04-26T03:56:43;-152.0;;;-146.1;100.0
45864;BME280;31579;52.354;16.974;2023-04-26T03:57:47;-152.2;;;-146.1;100.0
45864;BME280;31579;52.354;16.974;2023-04-26T03:58:51;-152.2;;;-146.1;100.0
45864;BME280;31579;52.354;16.974;2023-04-26T03:59:55;-152.2;;;-146.1;100.0
45864;BME280;31579;52.354;16.974;2023-04-26T04:01:00;-152.2;;;-146.1;100.0
45864;BME280;31579;52.354;16.974;2023-04-26T04:02:04;-152.2;;;-146.1;100.0
45864;BME280;31579;52.354;16.974;2023-04-26T04:03:08;-152.2;;;-146.1;100.0
45864;BME280;31579;52.354;16.974;2023-04-26T04:04:12;-152.2;;;-146.1;100.0
45864;BME280;31579;52.354;16.974;2023-04-26T04:05:16;-152.1;;;-146.1;100.0
45864;BME280;31579;52.354;16.974;2023-04-26T04:06:20;-152.0;;;-146.1;100.0
45864;BME280;31579;52.354;16.974;2023-04-26T04:07:24;-152.0;;;-146.1;100.0
45864;BME280;31579;52.354;16.974;2023-04-26T04:08:27;-142.4;;;-146.1;100.0
45864;BME280;31579;52.354;16.974;2023-04-26T04:09:29;-123.7;;;-146.1;100.0
45864;BME280;31579;52.354;16.974;2023-04-26T04:10:33;-152.5;;;-146.1;100.0
45864;BME280;31579;52.354;16.974;2023-04-26T04:11:37;-152.3;;;-146.1;100.0
45864;BME280;31579;52.354;16.974;2023-04-26T04:12:41;-152.0;;;-146.1;100.0
45864;BME280;31579;52.354;16.974;2023-04-26T04:13:45;-151.7;;;-146.1;100.0
45864;BME280;31579;52.354;16.974;2023-04-26T04:14:50;-151.6;;;-146.1;100.0
45864;BME280;31579;52.354;16.974;2023-04-26T04:15:54;-151.3;;;-146.1;100.0
45864;BME280;31579;52.354;16.974;2023-04-26T04:16:58;-151.0;;;-146.1;100.0
45864;BME280;31579;52.354;16.974;2023-04-26T04:18:09;-152.6;;;-146.1;100.0
45864;BME280;31579;52.354;16.974;2023-04-26T04:19:13;-140.5;;;-146.1;100.0
45864;BME280;31579;52.354;16.974;2023-04-26T04:20:17;-145.8;;;-146.1;100.0
45864;BME280;31579;52.354;16.974;2023-04-26T04:21:21;-148.0;;;-146.1;100.0
45864;BME280;31579;52.354;16.974;2023-04-26T04:22:25;-148.7;;;-146.1;100.0
45864;BME280;31579;52.354;16.974;2023-04-26T04:23:30;-149.2;;;-146.1;100.0
45864;BME280;31579;52.354;16.974;2023-04-26T04:24:34;-149.3;;;-146.1;100.0
45864;BME280;31579;52.354;16.974;2023-04-26T04:25:38;-149.0;;;-146.1;100.0
45864;BME280;31579;52.354;16.974;2023-04-26T04:26:42;-148.4;;;-146.1;100.0
45864;BME280;31579;52.354;16.974;2023-04-26T04:27:46;-147.8;;;-146.1;100.0
45864;BME280;31579;52.354;16.974;2023-04-26T04:28:51;-147.3;;;-146.1;100.0
45864;BME280;31579;52.354;16.974;2023-04-26T04:29:55;-146.0;;;-146.1;100.0
45864;BME280;31579;52.354;16.974;2023-04-26T04:30:59;-144.1;;;-146.1;100.0
45864;BME280;31579;52.354;16.974;2023-04-26T04:32:01;-87.6;;;-146.1;100.0
45864;BME280;31579;52.354;16.974;2023-04-26T04:33:06;-147.3;;;-146.1;100.0
45864;BME280;31579;52.354;16.974;2023-04-26T04:34:10;-140.4;;;-146.1;100.0
45864;BME280;31579;52.354;16.974;2023-04-26T04:35:14;-133.7;;;-146.1;100.0
45864;BME280;31579;52.354;16.974;2023-04-26T04:36:18;-127.4;;;-146.1;100.0
45864;BME280;31579;52.354;16.974;2023-04-26T04:37:22;-122.4;;;-146.1;100.0
45864;BME280;31579;52.354;16.974;2023-04-26T04:38:26;-117.3;;;-146.1;100.0
45864;BME280;31579;52.354;16.974;2023-04-26T04:39:30;-111.4;;;-146.1;100.0
45864;BME280;31579;52.354;16.974;2023-04-26T04:40:48;-106.3;;;-146.1;100.0
45864;BME280;31579;52.354;16.974;2023-04-26T04:41:52;-78.0;;;-146.1;100.0
45864;BME280;31579;52.354;16.974;2023-04-26T04:42:56;-82.0;;;-146.1;100.0
45864;BME280;31579;52.354;16.974;2023-04-26T04:44:00;-85.5;;;-146.1;100.0
45864;BME280;31579;52.354;16.974;2023-04-26T04:45:04;-84.1;;;-146.1;100.0
45864;BME280;31579;52.354;16.974;2023-04-26T04:46:08;-77.9;;;-146.1;100.0
45864;BME280;31579;52.354;16.974;2023-04-26T04:47:12;-74.2;;;-146.1;100.0
45864;BME280;31579;52.354;16.974;2023-04-26T04:48:16;-70.2;;;-146.1;100.0
45864;BME280;31579;52.354;16.974;2023-04-26T04:49:20;-66.4;;;-146.1;100.0
45864;BME280;31579;52.354;16.974;2023-04-26T04:50:24;-58.3;;;-146.1;100.0
45864;BME280;31579;52.354;16.974;2023-04-26T04:51:28;-56.7;;;-146.1;100.0
45864;BME280;31579;52.354;16.974;2023-04-26T04:52:32;-52.8;;;-146.1;100.0
45864;BME280;31579;52.354;16.974;2023-04-26T04:53:36;-45.3;;;-146.1;100.0
45864;BME280;31579;52.354;16.974;2023-04-26T04:54:40;-39.5;;;-146.1;100.0
45864;BME280;31579;52.354;16.974;2023-04-26T04:55:44;-19.7;;;-146.1;100.0
45864;BME280;31579;52.354;16.974;2023-04-26T04:56:48;-37.0;;;-146.1;100.0
45864;BME280;31579;52.354;16.974;2023-04-26T04:57:52;-21.9;;;-146.1;100.0
45864;BME280;31579;52.354;16.974;2023-04-26T04:58:56;-11.3;;;-146.1;100.0
45864;BME280;31579;52.354;16.974;2023-04-26T05:00:00;0.3;;;-146.1;100.0
45864;BME280;31579;52.354;16.974;2023-04-26T05:01:04;9.7;;;-146.1;100.0
45864;BME280;31579;52.354;16.974;2023-04-26T05:02:08;21.1;;;-146.1;100.0
45864;BME280;31579;52.354;16.974;2023-04-26T05:03:12;17.0;;;-146.1;100.0
45864;BME280;31579;52.354;16.974;2023-04-26T05:04:16;21.1;;;-146.1;100.0
45864;BME280;31579;52.354;16.974;2023-04-26T05:05:21;18.4;;;-146.1;100.0
45864;BME280;31579;52.354;16.974;2023-04-26T05:06:25;22.0;;;-146.1;100.0
45864;BME280;31579;52.354;16.974;2023-04-26T05:07:30;48.8;;;-146.1;100.0
45864;BME280;31579;52.354;16.974;2023-04-26T05:08:34;49.4;;;-146.1;100.0
45864;BME280;31579;52.354;16.974;2023-04-26T05:09:38;41.9;;;-146.1;100.0
45864;BME280;31579;52.354;16.974;2023-04-26T05:10:42;44.2;;;-146.1;100.0
45864;BME280;31579;52.354;16.974;2023-04-26T05:11:46;57.5;;;-146.1;100.0
45864;BME280;31579;52.354;16.974;2023-04-26T05:12:50;67.1;;;-146.1;100.0
45864;BME280;31579;52.354;16.974;2023-04-26T05:13:54;71.9;;;-146.1;100.0
45864;BME280;31579;52.354;16.974;2023-04-26T05:14:58;72.2;;;-146.1;100.0
45864;BME280;31579;52.354;16.974;2023-04-26T05:16:02;90.8;;;-146.1;100.0
45864;BME280;31579;52.354;16.974;2023-04-26T05:17:06;103.5;;;-146.1;100.0
45864;BME280;31579;52.354;16.974;2023-04-26T05:18:10;137.8;;;-146.1;100.0
45864;BME280;31579;52.354;16.974;2023-04-26T05:19:14;169.1;;;-146.1;100.0
45864;BME280;31579;52.354;16.974;2023-04-26T05:20:18;163.6;;;-146.1;100.0
45864;BME280;31579;52.354;16.974;2023-04-26T05:21:22;184.9;;;-146.1;100.0
45864;BME280;31579;52.354;16.974;2023-04-26T05:22:26;187.3;;;-146.1;100.0
45864;BME280;31579;52.354;16.974;2023-04-26T05:23:30;207.7;;;-146.1;100.0
45864;BME280;31579;52.354;16.974;2023-04-26T05:24:34;267.4;;;-146.1;100.0
45864;BME280;31579;52.354;16.974;2023-04-26T05:25:38;345.8;;;-146.1;100.0
45864;BME280;31579;52.354;16.974;2023-04-26T05:26:42;371.0;;;-146.1;100.0
45864;BME280;31579;52.354;16.974;2023-04-26T05:27:46;375.2;;;-146.1;100.0
45864;BME280;31579;52.354;16.974;2023-04-26T05:28:50;451.4;;;-146.1;100.0
45864;BME280;31579;52.354;16.974;2023-04-26T05:29:54;499.3;;;-146.1;100.0
45864;BME280;31579;52.354;16.974;2023-04-26T05:30:58;596.6;;;-146.1;100.0
45864;BME280;31579;52.354;16.974;2023-04-26T05:32:02;629.6;;;-146.1;100.0
45864;BME280;31579;52.354;16.974;2023-04-26T05:33:06;707.8;;;-146.1;100.0
45864;BME280;31579;52.354;16.974;2023-04-26T05:34:10;773.0;;;-146.1;100.0
45864;BME280;31579;52.354;16.974;2023-04-26T05:35:14;769.6;;;-146.1;100.0
45864;BME280;31579;52.354;16.974;2023-04-26T05:36:18;811.7;;;-146.1;100.0
45864;BME280;31579;52.354;16.974;2023-04-26T05:37:22;927.9;;;-146.1;100.0
45864;BME280;31579;52.354;16.974;2023-04-26T05:38:26;1107.3;;;-146.1;100.0
45864;BME280;31579;52.354;16.974;2023-04-26T05:39:30;1164.3;;;-146.1;100.0
45864;BME280;31579;52.354;16.974;2023-04-26T05:40:34;1161.7;;;-146.1;100.0
45864;BME280;31579;52.354;16.974;2023-04-26T05:41:38;1162.6;;;-146.1;100.0
45864;BME280;31579;52.354;16.974;2023-04-26T05:42:44;1160.3;;;-146.1;100.0
45864;BME280;31579;52.354;16.974;2023-04-26T05:43:48;1162.0;;;-146.1;100.0